sensor_id;sensor_type;location;lat;lon;timestamp;P1;durP1;ratioP1;P2;durP2;ratioP2
54167;SDS011;40072;50.958;3.592;2023-02-26T00:02:25;14.13;;;4.95;;
54167;SDS011;40072;50.958;3.592;2023-02-26T00:04:51;11.85;;;4.22;;
54167;SDS011;40072;50.958;3.592;2023-02-26T00:07:16;19.27;;;4.05;;
54167;SDS011;40072;50.958;3.592;2023-02-26T00:09:42;16.92;;;5.22;;
54167;SDS011;40072;50.958;3.592;2023-02-26T00:12:09;18.42;;;4.30;;
54167;SDS011;40072;50.958;3.592;2023-02-26T00:14:36;24.50;;;4.13;;
54167;SDS011;40072;50.958;3.592;2023-02-26T00:19:37;13.60;;;3.58;;
54167;SDS011;40072;50.958;3.592;2023-02-26T00:22:03;14.27;;;3.83;;
54167;SDS011;40072;50.958;3.592;2023-02-26T00:24:29;14.77;;;3.92;;
54167;SDS011;40072;50.958;3.592;2023-02-26T00:26:54;12.35;;;3.28;;
54167;SDS011;40072;50.958;3.592;2023-02-26T00:29:20;11.60;;;3.40;;
54167;SDS011;40072;50.958;3.592;2023-02-26T00:31:46;11.30;;;3.00;;
54167;SDS011;40072;50.958;3.592;2023-02-26T00:34:12;28.15;;;3.60;;
54167;SDS011;40072;50.958;3.592;2023-02-26T00:36:44;19.35;;;3.20;;
54167;SDS011;40072;50.958;3.592;2023-02-26T00:39:39;17.33;;;3.30;;
54167;SDS011;40072;50.958;3.592;2023-02-26T00:42:05;8.27;;;2.72;;
54167;SDS011;40072;50.958;3.592;2023-02-26T00:44:31;10.25;;;2.90;;
54167;SDS011;40072;50.958;3.592;2023-02-26T00:52:45;10.43;;;2.83;;
54167;SDS011;40072;50.958;3.592;2023-02-26T00:55:11;9.15;;;2.42;;
54167;SDS011;40072;50.958;3.592;2023-02-26T00:57:37;8.15;;;2.83;;
54167;SDS011;40072;50.958;3.592;2023-02-26T01:00:03;16.92;;;2.65;;
54167;SDS011;40072;50.958;3.592;2023-02-26T01:02:32;15.07;;;3.08;;
54167;SDS011;40072;50.958;3.592;2023-02-26T01:05:00;20.10;;;3.33;;
54167;SDS011;40072;50.958;3.592;2023-02-26T01:07:25;18.45;;;4.05;;
54167;SDS011;40072;50.958;3.592;2023-02-26T01:09:54;18.95;;;2.70;;
54167;SDS011;40072;50.958;3.592;2023-02-26T01:12:20;9.93;;;2.55;;
54167;SDS011;40072;50.958;3.592;2023-02-26T01:14:46;17.85;;;2.95;;
54167;SDS011;40072;50.958;3.592;2023-02-26T01:17:30;11.55;;;2.67;;
54167;SDS011;40072;50.958;3.592;2023-02-26T01:20:01;17.65;;;2.67;;
54167;SDS011;40072;50.958;3.592;2023-02-26T01:22:32;13.50;;;2.80;;
54167;SDS011;40072;50.958;3.592;2023-02-26T01:27:27;9.50;;;2.50;;
54167;SDS011;40072;50.958;3.592;2023-02-26T01:29:53;12.50;;;2.38;;
54167;SDS011;40072;50.958;3.592;2023-02-26T01:32:29;10.32;;;2.35;;
54167;SDS011;40072;50.958;3.592;2023-02-26T01:43:01;8.65;;;2.55;;
54167;SDS011;40072;50.958;3.592;2023-02-26T01:45:54;14.68;;;2.70;;
54167;SDS011;40072;50.958;3.592;2023-02-26T01:48:37;15.52;;;2.40;;
54167;SDS011;40072;50.958;3.592;2023-02-26T01:51:39;12.80;;;2.22;;
54167;SDS011;40072;50.958;3.592;2023-02-26T01:54:07;9.35;;;2.28;;
54167;SDS011;40072;50.958;3.592;2023-02-26T01:56:33;12.27;;;3.00;;
54167;SDS011;40072;50.958;3.592;2023-02-26T01:58:59;6.88;;;2.10;;
54167;SDS011;40072;50.958;3.592;2023-02-26T02:01:30;16.35;;;2.47;;
54167;SDS011;40072;50.958;3.592;2023-02-26T02:03:56;14.57;;;2.70;;
54167;SDS011;40072;50.958;3.592;2023-02-26T02:06:23;16.85;;;2.35;;
54167;SDS011;40072;50.958;3.592;2023-02-26T02:08:51;12.63;;;2.13;;
54167;SDS011;40072;50.958;3.592;2023-02-26T02:11:17;12.73;;;2.53;;
54167;SDS011;40072;50.958;3.592;2023-02-26T02:29:53;10.38;;;2.20;;
54167;SDS011;40072;50.958;3.592;2023-02-26T02:35:24;10.35;;;2.10;;
54167;SDS011;40072;50.958;3.592;2023-02-26T02:38:58;14.18;;;2.17;;
54167;SDS011;40072;50.958;3.592;2023-02-26T02:41:08;12.57;;;2.25;;
54167;SDS011;40072;50.958;3.592;2023-02-26T02:43:39;9.75;;;1.95;;
54167;SDS011;40072;50.958;3.592;2023-02-26T02:46:08;10.80;;;2.92;;
54167;SDS011;40072;50.958;3.592;2023-02-26T02:48:53;12.10;;;1.80;;
54167;SDS011;40072;50.958;3.592;2023-02-26T02:51:29;12.02;;;1.70;;
54167;SDS011;40072;50.958;3.592;2023-02-26T02:54:59;10.32;;;1.83;;
54167;SDS011;40072;50.958;3.592;2023-02-26T02:57:00;13.82;;;1.67;;
54167;SDS011;40072;50.958;3.592;2023-02-26T02:59:46;13.73;;;2.03;;
54167;SDS011;40072;50.958;3.592;2023-02-26T03:02:20;12.07;;;1.80;;
54167;SDS011;40072;50.958;3.592;2023-02-26T03:04:52;10.23;;;1.98;;
54167;SDS011;40072;50.958;3.592;2023-02-26T03:07:18;9.02;;;1.88;;
54167;SDS011;40072;50.958;3.592;2023-02-26T03:09:43;6.63;;;1.63;;
54167;SDS011;40072;50.958;3.592;2023-02-26T03:12:10;8.13;;;1.92;;
54167;SDS011;40072;50.958;3.592;2023-02-26T03:14:36;16.35;;;2.08;;
54167;SDS011;40072;50.958;3.592;2023-02-26T03:20:01;8.23;;;1.65;;
54167;SDS011;40072;50.958;3.592;2023-02-26T03:25:46;10.90;;;2.28;;
54167;SDS011;40072;50.958;3.592;2023-02-26T03:28:27;6.43;;;1.83;;
54167;SDS011;40072;50.958;3.592;2023-02-26T03:31:10;12.02;;;1.85;;
54167;SDS011;40072;50.958;3.592;2023-02-26T03:36:24;11.82;;;2.10;;
54167;SDS011;40072;50.958;3.592;2023-02-26T03:39:02;8.77;;;1.83;;
54167;SDS011;40072;50.958;3.592;2023-02-26T03:41:57;10.77;;;1.95;;
54167;SDS011;40072;50.958;3.592;2023-02-26T03:44:34;8.80;;;1.67;;
54167;SDS011;40072;50.958;3.592;2023-02-26T03:47:05;6.97;;;1.45;;
54167;SDS011;40072;50.958;3.592;2023-02-26T03:49:45;6.75;;;1.33;;
54167;SDS011;40072;50.958;3.592;2023-02-26T03:52:17;6.97;;;1.35;;
54167;SDS011;40072;50.958;3.592;2023-02-26T03:54:49;10.90;;;1.25;;
54167;SDS011;40072;50.958;3.592;2023-02-26T03:57:21;7.68;;;1.20;;
54167;SDS011;40072;50.958;3.592;2023-02-26T03:59:47;9.70;;;1.45;;
54167;SDS011;40072;50.958;3.592;2023-02-26T04:02:17;6.47;;;1.48;;
54167;SDS011;40072;50.958;3.592;2023-02-26T04:04:53;10.93;;;1.35;;
54167;SDS011;40072;50.958;3.592;2023-02-26T04:07:23;3.72;;;1.25;;
54167;SDS011;40072;50.958;3.592;2023-02-26T04:09:49;6.43;;;1.13;;
54167;SDS011;40072;50.958;3.592;2023-02-26T04:12:20;6.82;;;1.40;;
54167;SDS011;40072;50.958;3.592;2023-02-26T04:14:47;8.27;;;1.40;;
54167;SDS011;40072;50.958;3.592;2023-02-26T04:17:13;10.73;;;1.65;;
54167;SDS011;40072;50.958;3.592;2023-02-26T04:19:38;8.75;;;1.60;;
54167;SDS011;40072;50.958;3.592;2023-02-26T04:22:04;8.32;;;1.48;;
54167;SDS011;40072;50.958;3.592;2023-02-26T04:24:30;7.07;;;1.30;;
54167;SDS011;40072;50.958;3.592;2023-02-26T04:26:55;9.02;;;1.63;;
54167;SDS011;40072;50.958;3.592;2023-02-26T04:29:21;12.35;;;1.50;;
54167;SDS011;40072;50.958;3.592;2023-02-26T04:31:47;9.50;;;1.98;;
54167;SDS011;40072;50.958;3.592;2023-02-26T04:34:13;3.40;;;0.82;;
54167;SDS011;40072;50.958;3.592;2023-02-26T04:36:39;8.55;;;1.45;;
54167;SDS011;40072;50.958;3.592;2023-02-26T04:39:04;4.28;;;1.58;;
54167;SDS011;40072;50.958;3.592;2023-02-26T04:41:30;2.80;;;1.20;;
54167;SDS011;40072;50.958;3.592;2023-02-26T04:43:56;6.50;;;1.23;;
54167;SDS011;40072;50.958;3.592;2023-02-26T04:46:21;3.58;;;0.95;;
54167;SDS011;40072;50.958;3.592;2023-02-26T04:48:47;7.00;;;0.90;;
54167;SDS011;40072;50.958;3.592;2023-02-26T04:51:13;7.55;;;1.58;;
54167;SDS011;40072;50.958;3.592;2023-02-26T04:53:38;7.53;;;1.17;;
54167;SDS011;40072;50.958;3.592;2023-02-26T04:56:04;10.75;;;1.52;;
54167;SDS011;40072;50.958;3.592;2023-02-26T04:58:31;3.30;;;1.08;;
54167;SDS011;40072;50.958;3.592;2023-02-26T05:00:57;6.65;;;1.00;;
54167;SDS011;40072;50.958;3.592;2023-02-26T05:03:22;7.13;;;2.20;;
54167;SDS011;40072;50.958;3.592;2023-02-26T05:05:48;7.15;;;1.73;;
54167;SDS011;40072;50.958;3.592;2023-02-26T05:08:14;5.22;;;1.45;;
54167;SDS011;40072;50.958;3.592;2023-02-26T05:10:40;9.70;;;1.35;;
54167;SDS011;40072;50.958;3.592;2023-02-26T05:13:05;6.95;;;1.70;;
54167;SDS011;40072;50.958;3.592;2023-02-26T05:15:31;7.45;;;1.23;;
54167;SDS011;40072;50.958;3.592;2023-02-26T05:17:57;8.88;;;1.70;;
54167;SDS011;40072;50.958;3.592;2023-02-26T05:20:23;8.10;;;1.17;;
54167;SDS011;40072;50.958;3.592;2023-02-26T05:22:48;9.43;;;1.10;;
54167;SDS011;40072;50.958;3.592;2023-02-26T05:25:14;6.30;;;1.10;;
54167;SDS011;40072;50.958;3.592;2023-02-26T05:27:40;5.35;;;1.33;;
54167;SDS011;40072;50.958;3.592;2023-02-26T05:30:08;4.90;;;1.10;;
54167;SDS011;40072;50.958;3.592;2023-02-26T05:32:36;8.98;;;1.30;;
54167;SDS011;40072;50.958;3.592;2023-02-26T05:35:02;9.30;;;1.70;;
54167;SDS011;40072;50.958;3.592;2023-02-26T05:37:27;5.43;;;1.25;;
54167;SDS011;40072;50.958;3.592;2023-02-26T05:39:53;12.68;;;1.20;;
54167;SDS011;40072;50.958;3.592;2023-02-26T05:42:19;6.82;;;1.05;;
54167;SDS011;40072;50.958;3.592;2023-02-26T05:44:45;5.22;;;1.00;;
54167;SDS011;40072;50.958;3.592;2023-02-26T05:47:11;4.53;;;1.33;;
54167;SDS011;40072;50.958;3.592;2023-02-26T05:49:36;15.65;;;1.10;;
54167;SDS011;40072;50.958;3.592;2023-02-26T05:52:02;4.07;;;0.80;;
54167;SDS011;40072;50.958;3.592;2023-02-26T05:54:28;8.70;;;1.08;;
54167;SDS011;40072;50.958;3.592;2023-02-26T05:56:54;4.10;;;0.90;;
54167;SDS011;40072;50.958;3.592;2023-02-26T05:59:20;4.88;;;1.13;;
54167;SDS011;40072;50.958;3.592;2023-02-26T06:01:45;4.07;;;1.10;;
54167;SDS011;40072;50.958;3.592;2023-02-26T06:04:11;5.07;;;1.15;;
54167;SDS011;40072;50.958;3.592;2023-02-26T06:06:37;6.82;;;0.95;;
54167;SDS011;40072;50.958;3.592;2023-02-26T06:09:02;4.55;;;0.93;;
54167;SDS011;40072;50.958;3.592;2023-02-26T06:11:28;6.20;;;1.05;;
54167;SDS011;40072;50.958;3.592;2023-02-26T06:13:54;11.95;;;1.48;;
54167;SDS011;40072;50.958;3.592;2023-02-26T06:16:20;3.03;;;0.80;;
54167;SDS011;40072;50.958;3.592;2023-02-26T06:18:47;15.45;;;1.35;;
54167;SDS011;40072;50.958;3.592;2023-02-26T06:21:12;9.60;;;1.42;;
54167;SDS011;40072;50.958;3.592;2023-02-26T06:23:38;6.65;;;1.75;;
54167;SDS011;40072;50.958;3.592;2023-02-26T06:26:04;6.95;;;1.13;;
54167;SDS011;40072;50.958;3.592;2023-02-26T06:28:30;6.05;;;0.88;;
54167;SDS011;40072;50.958;3.592;2023-02-26T06:30:56;5.00;;;1.20;;
54167;SDS011;40072;50.958;3.592;2023-02-26T06:33:22;6.80;;;1.48;;
54167;SDS011;40072;50.958;3.592;2023-02-26T06:35:48;3.95;;;0.80;;
54167;SDS011;40072;50.958;3.592;2023-02-26T06:38:14;6.28;;;1.30;;
54167;SDS011;40072;50.958;3.592;2023-02-26T06:40:40;7.97;;;2.08;;
54167;SDS011;40072;50.958;3.592;2023-02-26T06:43:06;3.13;;;0.80;;
54167;SDS011;40072;50.958;3.592;2023-02-26T06:45:32;4.03;;;1.13;;
54167;SDS011;40072;50.958;3.592;2023-02-26T06:47:57;6.97;;;1.10;;
54167;SDS011;40072;50.958;3.592;2023-02-26T06:50:23;3.78;;;1.15;;
54167;SDS011;40072;50.958;3.592;2023-02-26T06:52:49;7.05;;;1.17;;
54167;SDS011;40072;50.958;3.592;2023-02-26T06:55:15;6.05;;;1.10;;
54167;SDS011;40072;50.958;3.592;2023-02-26T06:57:41;4.05;;;1.33;;
54167;SDS011;40072;50.958;3.592;2023-02-26T07:00:07;0.98;;;0.65;;
54167;SDS011;40072;50.958;3.592;2023-02-26T07:02:33;8.23;;;1.67;;
54167;SDS011;40072;50.958;3.592;2023-02-26T07:04:59;3.53;;;1.13;;
54167;SDS011;40072;50.958;3.592;2023-02-26T07:07:25;8.82;;;1.65;;
54167;SDS011;40072;50.958;3.592;2023-02-26T07:09:51;6.78;;;1.20;;
54167;SDS011;40072;50.958;3.592;2023-02-26T07:12:16;9.55;;;1.83;;
54167;SDS011;40072;50.958;3.592;2023-02-26T07:14:42;4.72;;;0.70;;
54167;SDS011;40072;50.958;3.592;2023-02-26T07:17:09;5.45;;;1.08;;
54167;SDS011;40072;50.958;3.592;2023-02-26T07:19:44;11.48;;;1.25;;
54167;SDS011;40072;50.958;3.592;2023-02-26T07:22:10;6.45;;;1.20;;
54167;SDS011;40072;50.958;3.592;2023-02-26T07:24:36;4.00;;;1.65;;
54167;SDS011;40072;50.958;3.592;2023-02-26T07:27:02;8.98;;;1.05;;
54167;SDS011;40072;50.958;3.592;2023-02-26T07:29:27;8.90;;;0.60;;
54167;SDS011;40072;50.958;3.592;2023-02-26T07:31:53;6.70;;;1.27;;
54167;SDS011;40072;50.958;3.592;2023-02-26T07:34:19;4.65;;;1.48;;
54167;SDS011;40072;50.958;3.592;2023-02-26T07:36:44;7.97;;;1.20;;
54167;SDS011;40072;50.958;3.592;2023-02-26T07:39:10;3.10;;;1.00;;
54167;SDS011;40072;50.958;3.592;2023-02-26T07:41:36;1.00;;;0.50;;
54167;SDS011;40072;50.958;3.592;2023-02-26T07:44:01;10.80;;;1.65;;
54167;SDS011;40072;50.958;3.592;2023-02-26T07:46:27;3.83;;;0.98;;
54167;SDS011;40072;50.958;3.592;2023-02-26T07:48:53;6.05;;;1.27;;
54167;SDS011;40072;50.958;3.592;2023-02-26T07:51:19;5.35;;;1.40;;
54167;SDS011;40072;50.958;3.592;2023-02-26T07:53:45;9.20;;;1.50;;
54167;SDS011;40072;50.958;3.592;2023-02-26T07:56:10;8.05;;;1.35;;
54167;SDS011;40072;50.958;3.592;2023-02-26T07:58:36;5.63;;;1.45;;
54167;SDS011;40072;50.958;3.592;2023-02-26T08:01:02;4.25;;;1.08;;
54167;SDS011;40072;50.958;3.592;2023-02-26T08:03:27;9.63;;;1.48;;
54167;SDS011;40072;50.958;3.592;2023-02-26T08:05:53;3.55;;;1.02;;
54167;SDS011;40072;50.958;3.592;2023-02-26T08:08:19;4.45;;;1.23;;
54167;SDS011;40072;50.958;3.592;2023-02-26T08:10:44;10.57;;;1.17;;
54167;SDS011;40072;50.958;3.592;2023-02-26T08:13:10;4.32;;;1.33;;
54167;SDS011;40072;50.958;3.592;2023-02-26T08:15:35;11.02;;;1.88;;
54167;SDS011;40072;50.958;3.592;2023-02-26T08:18:01;8.60;;;1.10;;
54167;SDS011;40072;50.958;3.592;2023-02-26T08:20:27;5.90;;;1.30;;
54167;SDS011;40072;50.958;3.592;2023-02-26T08:22:53;1.85;;;0.45;;
54167;SDS011;40072;50.958;3.592;2023-02-26T08:25:19;4.30;;;1.00;;
54167;SDS011;40072;50.958;3.592;2023-02-26T08:27:44;2.83;;;0.80;;
54167;SDS011;40072;50.958;3.592;2023-02-26T08:30:10;5.85;;;1.10;;
54167;SDS011;40072;50.958;3.592;2023-02-26T08:32:37;2.03;;;0.80;;
54167;SDS011;40072;50.958;3.592;2023-02-26T08:35:04;6.80;;;1.33;;
54167;SDS011;40072;50.958;3.592;2023-02-26T08:37:30;6.85;;;1.92;;
54167;SDS011;40072;50.958;3.592;2023-02-26T08:39:56;6.00;;;1.27;;
54167;SDS011;40072;50.958;3.592;2023-02-26T08:42:21;2.63;;;1.13;;
54167;SDS011;40072;50.958;3.592;2023-02-26T08:44:47;5.65;;;1.00;;
54167;SDS011;40072;50.958;3.592;2023-02-26T08:47:13;10.98;;;1.15;;
54167;SDS011;40072;50.958;3.592;2023-02-26T08:49:39;9.98;;;0.93;;
54167;SDS011;40072;50.958;3.592;2023-02-26T08:52:05;1.90;;;0.90;;
54167;SDS011;40072;50.958;3.592;2023-02-26T08:54:31;14.05;;;0.90;;
54167;SDS011;40072;50.958;3.592;2023-02-26T08:56:56;7.30;;;2.00;;
54167;SDS011;40072;50.958;3.592;2023-02-26T08:59:25;7.97;;;1.25;;
54167;SDS011;40072;50.958;3.592;2023-02-26T09:01:50;4.38;;;1.33;;
54167;SDS011;40072;50.958;3.592;2023-02-26T09:04:16;6.95;;;0.93;;
54167;SDS011;40072;50.958;3.592;2023-02-26T09:06:42;4.63;;;1.05;;
54167;SDS011;40072;50.958;3.592;2023-02-26T09:09:08;6.75;;;1.27;;
54167;SDS011;40072;50.958;3.592;2023-02-26T09:11:34;9.30;;;1.55;;
54167;SDS011;40072;50.958;3.592;2023-02-26T09:14:00;5.65;;;1.55;;
54167;SDS011;40072;50.958;3.592;2023-02-26T09:16:27;5.18;;;1.25;;
54167;SDS011;40072;50.958;3.592;2023-02-26T09:18:54;2.38;;;0.63;;
54167;SDS011;40072;50.958;3.592;2023-02-26T09:21:20;5.45;;;0.60;;
54167;SDS011;40072;50.958;3.592;2023-02-26T09:23:46;7.50;;;1.17;;
54167;SDS011;40072;50.958;3.592;2023-02-26T09:26:12;7.45;;;1.20;;
54167;SDS011;40072;50.958;3.592;2023-02-26T09:28:38;2.45;;;1.05;;
54167;SDS011;40072;50.958;3.592;2023-02-26T09:31:03;2.97;;;0.80;;
54167;SDS011;40072;50.958;3.592;2023-02-26T09:33:31;2.28;;;0.80;;
54167;SDS011;40072;50.958;3.592;2023-02-26T09:35:57;2.05;;;0.60;;
54167;SDS011;40072;50.958;3.592;2023-02-26T09:38:23;2.55;;;0.70;;
54167;SDS011;40072;50.958;3.592;2023-02-26T09:40:53;7.47;;;0.60;;
54167;SDS011;40072;50.958;3.592;2023-02-26T09:52:02;1.38;;;0.63;;
54167;SDS011;40072;50.958;3.592;2023-02-26T09:54:36;5.70;;;0.90;;
54167;SDS011;40072;50.958;3.592;2023-02-26T09:57:11;5.25;;;1.02;;
54167;SDS011;40072;50.958;3.592;2023-02-26T09:59:44;3.55;;;0.88;;
54167;SDS011;40072;50.958;3.592;2023-02-26T10:02:15;1.88;;;0.50;;
54167;SDS011;40072;50.958;3.592;2023-02-26T10:08:00;1.45;;;0.40;;
54167;SDS011;40072;50.958;3.592;2023-02-26T10:10:34;8.20;;;1.00;;
54167;SDS011;40072;50.958;3.592;2023-02-26T10:13:18;2.92;;;0.93;;
54167;SDS011;40072;50.958;3.592;2023-02-26T10:16:00;4.40;;;1.45;;
54167;SDS011;40072;50.958;3.592;2023-02-26T10:18:32;0.93;;;0.35;;
54167;SDS011;40072;50.958;3.592;2023-02-26T10:21:06;1.38;;;0.52;;
54167;SDS011;40072;50.958;3.592;2023-02-26T10:26:41;2.42;;;0.65;;
54167;SDS011;40072;50.958;3.592;2023-02-26T10:29:14;3.50;;;1.15;;
54167;SDS011;40072;50.958;3.592;2023-02-26T10:40:22;2.38;;;0.75;;
54167;SDS011;40072;50.958;3.592;2023-02-26T10:43:17;6.68;;;0.90;;
54167;SDS011;40072;50.958;3.592;2023-02-26T10:48:41;1.00;;;0.50;;
54167;SDS011;40072;50.958;3.592;2023-02-26T10:51:14;2.40;;;0.57;;
54167;SDS011;40072;50.958;3.592;2023-02-26T10:53:46;3.60;;;0.80;;
54167;SDS011;40072;50.958;3.592;2023-02-26T10:56:20;5.25;;;0.60;;
54167;SDS011;40072;50.958;3.592;2023-02-26T10:58:50;0.50;;;0.30;;
54167;SDS011;40072;50.958;3.592;2023-02-26T11:01:16;2.13;;;0.60;;
54167;SDS011;40072;50.958;3.592;2023-02-26T11:03:46;1.17;;;0.47;;
54167;SDS011;40072;50.958;3.592;2023-02-26T11:06:20;3.63;;;1.48;;
54167;SDS011;40072;50.958;3.592;2023-02-26T11:08:58;1.30;;;0.40;;
54167;SDS011;40072;50.958;3.592;2023-02-26T11:14:06;2.78;;;0.75;;
54167;SDS011;40072;50.958;3.592;2023-02-26T11:16:34;0.65;;;0.40;;
54167;SDS011;40072;50.958;3.592;2023-02-26T11:19:05;2.30;;;0.60;;
54167;SDS011;40072;50.958;3.592;2023-02-26T11:21:34;2.08;;;0.65;;
54167;SDS011;40072;50.958;3.592;2023-02-26T11:24:04;1.52;;;0.80;;
54167;SDS011;40072;50.958;3.592;2023-02-26T11:26:33;2.95;;;0.98;;
54167;SDS011;40072;50.958;3.592;2023-02-26T11:29:01;1.85;;;0.50;;
54167;SDS011;40072;50.958;3.592;2023-02-26T11:31:28;2.78;;;0.50;;
54167;SDS011;40072;50.958;3.592;2023-02-26T11:34:04;2.97;;;0.70;;
54167;SDS011;40072;50.958;3.592;2023-02-26T11:36:33;1.05;;;0.68;;
54167;SDS011;40072;50.958;3.592;2023-02-26T11:41:36;4.40;;;0.70;;
54167;SDS011;40072;50.958;3.592;2023-02-26T11:44:04;0.80;;;0.50;;
54167;SDS011;40072;50.958;3.592;2023-02-26T11:46:43;1.05;;;0.70;;
54167;SDS011;40072;50.958;3.592;2023-02-26T11:49:15;0.60;;;0.50;;
54167;SDS011;40072;50.958;3.592;2023-02-26T11:51:44;6.67;;;0.90;;
54167;SDS011;40072;50.958;3.592;2023-02-26T11:54:21;3.40;;;0.50;;
54167;SDS011;40072;50.958;3.592;2023-02-26T11:56:49;2.40;;;0.93;;
54167;SDS011;40072;50.958;3.592;2023-02-26T11:59:19;1.52;;;0.70;;
54167;SDS011;40072;50.958;3.592;2023-02-26T12:01:48;2.30;;;0.75;;
54167;SDS011;40072;50.958;3.592;2023-02-26T12:04:19;4.05;;;0.70;;
54167;SDS011;40072;50.958;3.592;2023-02-26T12:06:51;4.80;;;0.73;;
54167;SDS011;40072;50.958;3.592;2023-02-26T12:09:18;2.20;;;0.80;;
54167;SDS011;40072;50.958;3.592;2023-02-26T12:14:50;2.90;;;0.63;;
54167;SDS011;40072;50.958;3.592;2023-02-26T12:43:49;3.10;;;0.70;;
54167;SDS011;40072;50.958;3.592;2023-02-26T12:46:21;2.53;;;0.63;;
54167;SDS011;40072;50.958;3.592;2023-02-26T13:03:03;0.98;;;0.52;;
54167;SDS011;40072;50.958;3.592;2023-02-26T13:22:03;4.03;;;0.73;;
54167;SDS011;40072;50.958;3.592;2023-02-26T13:24:39;2.72;;;0.80;;
54167;SDS011;40072;50.958;3.592;2023-02-26T13:27:13;5.05;;;0.85;;
54167;SDS011;40072;50.958;3.592;2023-02-26T13:29:42;4.00;;;1.02;;
54167;SDS011;40072;50.958;3.592;2023-02-26T13:32:17;0.32;;;0.32;;
54167;SDS011;40072;50.958;3.592;2023-02-26T13:34:57;8.90;;;1.52;;
54167;SDS011;40072;50.958;3.592;2023-02-26T13:45:16;4.65;;;1.27;;
54167;SDS011;40072;50.958;3.592;2023-02-26T13:47:54;1.95;;;0.77;;
54167;SDS011;40072;50.958;3.592;2023-02-26T13:52:55;2.25;;;0.70;;
54167;SDS011;40072;50.958;3.592;2023-02-26T13:55:41;0.50;;;0.50;;
54167;SDS011;40072;50.958;3.592;2023-02-26T13:58:16;0.98;;;0.40;;
54167;SDS011;40072;50.958;3.592;2023-02-26T14:00:59;2.15;;;0.57;;
54167;SDS011;40072;50.958;3.592;2023-02-26T14:03:35;5.15;;;0.90;;
54167;SDS011;40072;50.958;3.592;2023-02-26T14:06:24;3.72;;;1.35;;
54167;SDS011;40072;50.958;3.592;2023-02-26T14:08:52;4.90;;;0.90;;
54167;SDS011;40072;50.958;3.592;2023-02-26T14:19:39;2.42;;;0.80;;
54167;SDS011;40072;50.958;3.592;2023-02-26T14:22:20;3.67;;;1.02;;
54167;SDS011;40072;50.958;3.592;2023-02-26T14:28:16;3.75;;;1.08;;
54167;SDS011;40072;50.958;3.592;2023-02-26T14:31:45;4.57;;;1.20;;
54167;SDS011;40072;50.958;3.592;2023-02-26T14:33:44;2.42;;;1.10;;
54167;SDS011;40072;50.958;3.592;2023-02-26T14:36:44;4.40;;;0.55;;
54167;SDS011;40072;50.958;3.592;2023-02-26T14:39:47;2.42;;;0.57;;
54167;SDS011;40072;50.958;3.592;2023-02-26T14:42:18;2.22;;;0.70;;
54167;SDS011;40072;50.958;3.592;2023-02-26T14:45:11;5.55;;;1.27;;
54167;SDS011;40072;50.958;3.592;2023-02-26T14:47:42;1.23;;;0.50;;
54167;SDS011;40072;50.958;3.592;2023-02-26T14:50:19;0.73;;;0.50;;
54167;SDS011;40072;50.958;3.592;2023-02-26T14:55:52;4.63;;;1.45;;
54167;SDS011;40072;50.958;3.592;2023-02-26T14:58:25;3.70;;;0.65;;
54167;SDS011;40072;50.958;3.592;2023-02-26T15:21:28;4.90;;;0.88;;
54167;SDS011;40072;50.958;3.592;2023-02-26T15:23:56;6.13;;;0.80;;
54167;SDS011;40072;50.958;3.592;2023-02-26T15:26:30;2.03;;;0.82;;
54167;SDS011;40072;50.958;3.592;2023-02-26T15:28:59;3.65;;;0.90;;
54167;SDS011;40072;50.958;3.592;2023-02-26T15:31:33;1.83;;;0.75;;
54167;SDS011;40072;50.958;3.592;2023-02-26T15:34:01;2.70;;;0.90;;
54167;SDS011;40072;50.958;3.592;2023-02-26T15:36:29;1.70;;;0.73;;
54167;SDS011;40072;50.958;3.592;2023-02-26T15:38:56;4.25;;;0.90;;
54167;SDS011;40072;50.958;3.592;2023-02-26T15:41:28;2.75;;;0.55;;
54167;SDS011;40072;50.958;3.592;2023-02-26T15:43:59;4.22;;;1.17;;
54167;SDS011;40072;50.958;3.592;2023-02-26T15:46:32;1.88;;;0.80;;
54167;SDS011;40072;50.958;3.592;2023-02-26T15:49:33;2.35;;;1.00;;
54167;SDS011;40072;50.958;3.592;2023-02-26T15:51:58;3.75;;;1.48;;
54167;SDS011;40072;50.958;3.592;2023-02-26T15:54:27;5.22;;;1.65;;
54167;SDS011;40072;50.958;3.592;2023-02-26T15:56:57;3.67;;;1.48;;
54167;SDS011;40072;50.958;3.592;2023-02-26T15:59:26;3.17;;;0.95;;
54167;SDS011;40072;50.958;3.592;2023-02-26T16:01:54;8.68;;;1.38;;
54167;SDS011;40072;50.958;3.592;2023-02-26T16:04:21;8.13;;;1.58;;
54167;SDS011;40072;50.958;3.592;2023-02-26T16:06:48;4.47;;;1.63;;
54167;SDS011;40072;50.958;3.592;2023-02-26T16:11:54;3.80;;;1.23;;
54167;SDS011;40072;50.958;3.592;2023-02-26T16:14:32;1.13;;;0.57;;
54167;SDS011;40072;50.958;3.592;2023-02-26T16:17:05;3.25;;;1.55;;
54167;SDS011;40072;50.958;3.592;2023-02-26T16:19:37;1.73;;;1.40;;
54167;SDS011;40072;50.958;3.592;2023-02-26T16:22:07;3.35;;;1.17;;
54167;SDS011;40072;50.958;3.592;2023-02-26T16:25:05;2.10;;;0.85;;
54167;SDS011;40072;50.958;3.592;2023-02-26T16:27:31;2.67;;;1.10;;
54167;SDS011;40072;50.958;3.592;2023-02-26T16:29:59;1.80;;;0.80;;
54167;SDS011;40072;50.958;3.592;2023-02-26T16:32:27;5.05;;;1.55;;
54167;SDS011;40072;50.958;3.592;2023-02-26T16:34:55;8.60;;;1.60;;
54167;SDS011;40072;50.958;3.592;2023-02-26T16:40:11;0.55;;;0.50;;
54167;SDS011;40072;50.958;3.592;2023-02-26T16:45:49;1.55;;;1.10;;
54167;SDS011;40072;50.958;3.592;2023-02-26T16:48:24;2.75;;;1.10;;
54167;SDS011;40072;50.958;3.592;2023-02-26T16:51:05;3.22;;;1.70;;
54167;SDS011;40072;50.958;3.592;2023-02-26T16:53:40;3.67;;;1.38;;
54167;SDS011;40072;50.958;3.592;2023-02-26T16:56:12;4.32;;;1.40;;
54167;SDS011;40072;50.958;3.592;2023-02-26T16:58:46;5.80;;;1.20;;
54167;SDS011;40072;50.958;3.592;2023-02-26T17:01:18;3.15;;;1.30;;
54167;SDS011;40072;50.958;3.592;2023-02-26T17:03:47;4.70;;;1.43;;
54167;SDS011;40072;50.958;3.592;2023-02-26T17:06:19;5.35;;;1.30;;
54167;SDS011;40072;50.958;3.592;2023-02-26T17:11:17;4.50;;;1.33;;
54167;SDS011;40072;50.958;3.592;2023-02-26T17:16:43;4.57;;;1.60;;
54167;SDS011;40072;50.958;3.592;2023-02-26T17:19:10;3.42;;;1.00;;
54167;SDS011;40072;50.958;3.592;2023-02-26T17:21:41;5.93;;;1.20;;
54167;SDS011;40072;50.958;3.592;2023-02-26T17:24:19;4.47;;;1.10;;
54167;SDS011;40072;50.958;3.592;2023-02-26T17:26:48;7.60;;;1.60;;
54167;SDS011;40072;50.958;3.592;2023-02-26T17:29:18;5.28;;;1.77;;
54167;SDS011;40072;50.958;3.592;2023-02-26T17:31:48;5.78;;;1.13;;
54167;SDS011;40072;50.958;3.592;2023-02-26T17:34:14;9.45;;;1.70;;
54167;SDS011;40072;50.958;3.592;2023-02-26T17:36:43;5.28;;;1.55;;
54167;SDS011;40072;50.958;3.592;2023-02-26T17:39:12;5.80;;;1.38;;
54167;SDS011;40072;50.958;3.592;2023-02-26T17:41:41;5.18;;;1.02;;
54167;SDS011;40072;50.958;3.592;2023-02-26T17:44:08;2.35;;;1.02;;
54167;SDS011;40072;50.958;3.592;2023-02-26T17:46:34;4.68;;;1.38;;
54167;SDS011;40072;50.958;3.592;2023-02-26T17:49:00;4.32;;;1.33;;
54167;SDS011;40072;50.958;3.592;2023-02-26T17:51:25;4.05;;;1.35;;
54167;SDS011;40072;50.958;3.592;2023-02-26T17:53:51;5.07;;;1.50;;
54167;SDS011;40072;50.958;3.592;2023-02-26T17:56:22;4.47;;;2.08;;
54167;SDS011;40072;50.958;3.592;2023-02-26T17:58:53;4.00;;;1.40;;
54167;SDS011;40072;50.958;3.592;2023-02-26T18:01:19;8.25;;;4.95;;
54167;SDS011;40072;50.958;3.592;2023-02-26T18:03:47;5.75;;;1.70;;
54167;SDS011;40072;50.958;3.592;2023-02-26T18:06:14;5.75;;;1.73;;
54167;SDS011;40072;50.958;3.592;2023-02-26T18:08:40;3.78;;;1.63;;
54167;SDS011;40072;50.958;3.592;2023-02-26T18:11:07;4.03;;;1.67;;
54167;SDS011;40072;50.958;3.592;2023-02-26T18:13:35;9.30;;;3.35;;
54167;SDS011;40072;50.958;3.592;2023-02-26T18:16:01;6.05;;;2.45;;
54167;SDS011;40072;50.958;3.592;2023-02-26T18:18:28;8.38;;;2.47;;
54167;SDS011;40072;50.958;3.592;2023-02-26T18:20:54;9.52;;;1.95;;